createdAt,value
2019-05-18T00:02:36.826Z,14.30
2019-05-18T00:06:45.512Z,14.10
2019-05-18T00:10:54.172Z,13.93
2019-05-18T00:15:02.892Z,13.83
2019-05-18T00:19:11.451Z,14.60
2019-05-18T00:23:20.175Z,13.60
2019-05-18T00:27:28.779Z,13.40
2019-05-18T00:31:37.408Z,12.97
2019-05-18T00:35:46.057Z,13.67
2019-05-18T00:39:54.680Z,14.40
2019-05-18T00:44:03.377Z,13.87
2019-05-18T00:48:12.003Z,13.13
2019-05-18T00:52:20.599Z,13.20
2019-05-18T00:56:29.243Z,12.80
2019-05-18T01:00:37.842Z,13.47
2019-05-18T01:04:46.485Z,13.63
2019-05-18T01:08:55.078Z,13.27
2019-05-18T01:13:03.786Z,13.93
2019-05-18T01:17:12.740Z,13.07
2019-05-18T01:21:21.386Z,13.60
2019-05-18T01:25:30.081Z,13.23
2019-05-18T01:29:39.070Z,12.90
2019-05-18T01:33:48.110Z,13.80
2019-05-18T01:37:57.122Z,14.03
2019-05-18T01:42:05.760Z,13.00
2019-05-18T01:46:14.655Z,14.70
2019-05-18T01:50:23.276Z,14.00
2019-05-18T01:54:31.903Z,12.60
2019-05-18T01:58:40.524Z,13.20
2019-05-18T02:02:49.192Z,13.97
2019-05-18T02:06:58.133Z,13.87
2019-05-18T02:11:06.766Z,15.23
2019-05-18T02:15:15.732Z,14.30
2019-05-18T02:19:24.919Z,15.00
2019-05-18T02:23:33.610Z,15.93
2019-05-18T02:27:42.229Z,15.13
2019-05-18T02:31:50.881Z,14.80
2019-05-18T02:35:59.567Z,14.50
2019-05-18T02:40:08.502Z,14.57
2019-05-18T02:44:17.149Z,15.00
2019-05-18T02:48:25.764Z,13.60
2019-05-18T02:52:34.395Z,12.60
2019-05-18T02:56:43.031Z,13.17
2019-05-18T03:00:52.120Z,14.00
2019-05-18T03:05:00.806Z,15.10
2019-05-18T03:09:09.494Z,14.20
2019-05-18T03:13:18.099Z,14.27
2019-05-18T03:17:26.782Z,14.87
2019-05-18T03:21:35.473Z,14.13
2019-05-18T03:25:44.544Z,13.03
2019-05-18T03:29:53.140Z,13.83
2019-05-18T03:34:01.794Z,13.53
2019-05-18T03:38:10.407Z,14.40
2019-05-18T03:42:19.093Z,13.03
2019-05-18T03:46:27.756Z,13.63
2019-05-18T03:50:36.369Z,13.80
2019-05-18T03:54:45.319Z,14.97
2019-05-18T03:58:53.942Z,12.60
2019-05-18T04:03:02.611Z,13.53
2019-05-18T04:07:11.251Z,13.27
2019-05-18T04:11:19.896Z,12.87
2019-05-18T04:15:28.497Z,14.00
2019-05-18T04:19:46.111Z,15.13
2019-05-18T04:23:47.467Z,14.00
2019-05-18T04:27:56.114Z,14.90
2019-05-18T04:32:04.771Z,14.17
2019-05-18T04:36:13.429Z,15.67
2019-05-18T04:40:22.037Z,16.10
2019-05-18T04:44:30.683Z,14.17
2019-05-18T04:48:39.343Z,14.17
2019-05-18T04:52:47.983Z,15.60
2019-05-18T04:56:56.544Z,14.30
2019-05-18T05:01:05.244Z,16.57
2019-05-18T05:05:13.940Z,15.43
2019-05-18T05:09:22.912Z,16.33
2019-05-18T05:13:31.553Z,15.03
2019-05-18T05:17:40.202Z,16.57
2019-05-18T05:21:48.829Z,15.87
2019-05-18T05:25:57.482Z,17.30
2019-05-18T05:30:07.459Z,17.13
2019-05-18T05:34:16.076Z,20.70
2019-05-18T05:38:24.828Z,18.47
2019-05-18T05:42:33.495Z,18.20
2019-05-18T05:46:42.100Z,18.60
2019-05-18T05:50:50.741Z,18.73
2019-05-18T05:54:59.343Z,18.73
2019-05-18T05:59:07.985Z,18.77
2019-05-18T06:03:17.003Z,21.27
2019-05-18T06:07:25.646Z,19.90
2019-05-18T06:11:34.355Z,19.20
2019-05-18T06:15:42.994Z,19.27
2019-05-18T06:20:07.220Z,21.07
2019-05-18T06:24:20.342Z,18.77
2019-05-18T06:28:28.975Z,19.33
2019-05-18T06:32:37.674Z,19.97
2019-05-18T06:36:46.306Z,19.10
2019-05-18T06:40:54.963Z,18.73
2019-05-18T06:45:05.341Z,17.97
2019-05-18T06:49:14.003Z,20.33
2019-05-18T06:53:23.475Z,21.07
2019-05-18T06:57:35.544Z,19.90
2019-05-18T07:01:44.542Z,21.70
2019-05-18T07:05:53.548Z,19.27
2019-05-18T07:10:02.199Z,20.13
2019-05-18T07:14:23.581Z,19.70
2019-05-18T07:18:21.079Z,19.83
2019-05-18T07:22:29.601Z,18.93
2019-05-18T07:26:38.238Z,19.30
2019-05-18T07:30:46.878Z,19.87
2019-05-18T07:34:55.904Z,19.80
2019-05-18T07:39:05.879Z,19.80
2019-05-18T07:43:14.609Z,18.10
2019-05-18T07:47:23.205Z,19.67
2019-05-18T07:51:36.939Z,20.17
2019-05-18T07:55:42.116Z,18.50
2019-05-18T07:59:50.819Z,20.47
2019-05-18T08:03:59.412Z,17.40
2019-05-18T08:08:08.044Z,17.60
2019-05-18T08:12:16.614Z,16.40
2019-05-18T08:16:25.328Z,17.23
2019-05-18T08:20:37.036Z,16.17
2019-05-18T08:24:45.648Z,13.33
2019-05-18T08:28:54.293Z,12.17
2019-05-18T08:33:02.951Z,11.83
2019-05-18T08:37:11.921Z,14.00
2019-05-18T08:41:20.586Z,12.37
2019-05-18T08:45:29.432Z,11.93
2019-05-18T08:49:41.038Z,12.30
2019-05-18T08:53:49.729Z,13.77
2019-05-18T08:57:58.459Z,11.90
2019-05-18T09:02:09.933Z,12.30
2019-05-18T09:06:18.555Z,14.10
2019-05-18T09:10:27.173Z,13.20
2019-05-18T09:14:35.781Z,11.70
2019-05-18T09:18:44.448Z,12.70
2019-05-18T09:22:53.042Z,12.53
2019-05-18T09:27:01.657Z,13.30
2019-05-18T09:31:10.642Z,13.83
2019-05-18T09:35:19.544Z,14.93
2019-05-18T09:39:47.855Z,15.73
2019-05-18T09:43:56.470Z,12.77
2019-05-18T09:48:05.544Z,13.97
2019-05-18T09:52:14.233Z,12.47
2019-05-18T09:56:22.817Z,14.40
2019-05-18T10:00:38.525Z,13.27
2019-05-18T10:04:41.867Z,13.90
2019-05-18T10:08:50.514Z,11.63
2019-05-18T10:12:59.150Z,13.20
2019-05-18T10:17:07.737Z,14.37
2019-05-18T10:21:16.383Z,13.63
2019-05-18T10:25:25.018Z,12.97
2019-05-18T10:29:33.712Z,12.90
2019-05-18T10:33:42.411Z,13.10
2019-05-18T10:37:51.037Z,13.13
2019-05-18T10:41:59.688Z,13.80
2019-05-18T10:46:08.293Z,13.47
2019-05-18T10:50:17.084Z,15.70
2019-05-18T10:54:25.983Z,14.87
2019-05-18T10:58:34.602Z,14.83
2019-05-18T11:02:43.310Z,11.63
2019-05-18T11:06:51.918Z,12.23
2019-05-18T11:11:03.379Z,8.70
2019-05-18T11:15:16.024Z,10.47
2019-05-18T11:19:24.838Z,12.47
2019-05-18T11:23:43.179Z,12.00
2019-05-18T11:27:44.215Z,13.53
2019-05-18T11:31:52.849Z,12.00
2019-05-18T11:36:01.547Z,12.00
2019-05-18T11:40:10.889Z,13.03
2019-05-18T11:44:19.615Z,11.17
2019-05-18T11:48:28.254Z,11.80
2019-05-18T11:52:36.958Z,11.10
2019-05-18T11:56:45.635Z,11.47
2019-05-18T12:00:54.238Z,11.57
2019-05-18T12:05:02.861Z,11.20
2019-05-18T12:09:11.509Z,10.67
2019-05-18T12:13:22.422Z,10.23
2019-05-18T12:17:49.807Z,10.90
2019-05-18T12:21:58.824Z,11.30
2019-05-18T12:26:07.438Z,12.47
2019-05-18T12:30:16.547Z,10.73
2019-05-18T12:34:25.157Z,11.60
2019-05-18T12:38:33.802Z,10.50
2019-05-18T12:42:42.462Z,10.83
2019-05-18T12:46:51.091Z,7.70
2019-05-18T12:50:59.687Z,8.43
2019-05-18T12:55:09.103Z,7.20
2019-05-18T12:59:17.639Z,8.27
2019-05-18T13:03:26.283Z,7.57
2019-05-18T13:07:35.394Z,7.80
2019-05-18T13:11:44.030Z,7.00
2019-05-18T13:15:52.672Z,6.80
2019-05-18T13:20:01.413Z,6.57
2019-05-18T13:24:10.110Z,6.27
2019-05-18T13:28:18.756Z,6.80
2019-05-18T13:32:27.377Z,6.73
2019-05-18T13:36:36.006Z,6.33
2019-05-18T13:40:44.655Z,6.90
2019-05-18T13:44:53.274Z,7.45
2019-05-18T13:49:01.879Z,8.40
2019-05-18T13:53:10.912Z,7.60
2019-05-18T13:57:19.641Z,8.27
2019-05-18T14:01:28.367Z,7.90
2019-05-18T14:05:37.456Z,7.93
2019-05-18T14:09:46.026Z,7.13
2019-05-18T14:13:54.655Z,8.10
2019-05-18T14:18:03.278Z,6.90
2019-05-18T14:22:11.881Z,7.57
2019-05-18T14:26:20.873Z,7.37
2019-05-18T14:30:29.513Z,7.00
2019-05-18T14:34:38.169Z,7.30
2019-05-18T14:38:46.816Z,7.00
2019-05-18T14:42:55.395Z,7.53
2019-05-18T14:47:04.224Z,6.47
2019-05-18T14:51:12.790Z,6.97
2019-05-18T14:55:32.863Z,7.60
2019-05-18T14:59:31.763Z,8.70
2019-05-18T15:03:40.793Z,8.00
2019-05-18T15:07:49.493Z,7.50
2019-05-18T15:11:58.128Z,7.50
2019-05-18T15:16:06.836Z,7.27
2019-05-18T15:20:15.912Z,7.30
2019-05-18T15:24:25.002Z,7.63
2019-05-18T15:28:33.994Z,7.33
2019-05-18T15:32:42.564Z,7.60
2019-05-18T15:36:51.305Z,6.40
2019-05-18T15:40:59.974Z,7.80
2019-05-18T15:45:09.561Z,6.77
2019-05-18T15:49:18.228Z,7.20
2019-05-18T15:53:26.865Z,9.43
2019-05-18T15:57:35.577Z,7.43
2019-05-18T16:01:44.166Z,7.00
2019-05-18T16:05:53.210Z,7.10
2019-05-18T16:10:01.877Z,6.93
2019-05-18T16:14:10.654Z,7.60
2019-05-18T16:18:23.044Z,7.93
2019-05-18T16:22:31.669Z,6.30
2019-05-18T16:26:40.326Z,5.47
2019-05-18T16:30:49.754Z,5.97
2019-05-18T16:34:58.755Z,3.90
2019-05-18T16:39:08.503Z,3.40
2019-05-18T16:43:17.110Z,3.13
2019-05-18T16:47:25.799Z,3.60
2019-05-18T16:51:34.810Z,3.40
2019-05-18T16:55:43.687Z,3.20
2019-05-18T16:59:52.384Z,3.07
2019-05-18T17:04:01.008Z,3.33
2019-05-18T17:08:09.601Z,3.13
2019-05-18T17:12:18.286Z,3.30
2019-05-18T17:16:26.894Z,3.60
2019-05-18T17:20:38.923Z,3.30
2019-05-18T17:24:47.564Z,4.00
2019-05-18T17:28:56.201Z,3.30
2019-05-18T17:33:04.797Z,4.37
2019-05-18T17:37:13.712Z,4.27
2019-05-18T17:41:22.312Z,4.00
2019-05-18T17:45:31.009Z,4.17
2019-05-18T17:49:39.672Z,4.77
2019-05-18T17:53:48.775Z,5.83
2019-05-18T17:57:57.317Z,4.80
2019-05-18T18:02:05.931Z,4.30
2019-05-18T18:06:14.693Z,4.43
2019-05-18T18:10:23.698Z,6.80
2019-05-18T18:14:32.367Z,7.40
2019-05-18T18:18:40.970Z,6.13
2019-05-18T18:22:49.625Z,6.20
2019-05-18T18:26:58.584Z,6.17
2019-05-18T18:31:26.573Z,5.63
2019-05-18T18:35:35.146Z,6.70
2019-05-18T18:39:43.884Z,6.47
2019-05-18T18:43:52.486Z,5.50
2019-05-18T18:48:01.111Z,6.20
2019-05-18T18:52:09.705Z,6.03
2019-05-18T18:56:18.294Z,5.80
2019-05-18T19:00:26.948Z,5.63
2019-05-18T19:04:35.623Z,6.03
2019-05-18T19:08:44.559Z,5.90
2019-05-18T19:12:53.163Z,5.77
2019-05-18T19:17:01.762Z,4.90
2019-05-18T19:21:10.352Z,5.83
2019-05-18T19:25:19.228Z,7.13
2019-05-18T19:29:27.858Z,6.23
2019-05-18T19:33:56.187Z,7.33
2019-05-18T19:38:04.902Z,7.50
2019-05-18T19:42:14.009Z,10.10
2019-05-18T19:46:22.637Z,9.40
2019-05-18T19:50:31.254Z,11.33
2019-05-18T19:54:39.941Z,10.83
2019-05-18T19:58:48.828Z,10.33
2019-05-18T20:02:57.810Z,12.87
2019-05-18T20:07:06.466Z,12.83
2019-05-18T20:11:15.115Z,12.57
2019-05-18T20:15:23.770Z,11.80
2019-05-18T20:19:39.060Z,13.43
2019-05-18T20:23:42.703Z,12.90
2019-05-18T20:27:51.296Z,14.17
2019-05-18T20:31:59.944Z,30.30
2019-05-18T20:36:08.588Z,17.43
2019-05-18T20:40:18.171Z,13.83
2019-05-18T20:44:26.838Z,16.17
2019-05-18T20:48:35.489Z,16.93
2019-05-18T20:52:44.190Z,17.20
2019-05-18T20:56:56.187Z,22.70
2019-05-18T21:01:04.625Z,20.50
2019-05-18T21:05:13.623Z,18.60
2019-05-18T21:09:22.250Z,18.73
2019-05-18T21:13:30.866Z,19.57
2019-05-18T21:17:58.840Z,19.57
2019-05-18T21:22:07.810Z,20.27
2019-05-18T21:26:16.825Z,21.20
2019-05-18T21:30:28.402Z,19.97
2019-05-18T21:34:37.011Z,20.20
2019-05-18T21:38:45.618Z,17.90
2019-05-18T21:42:54.293Z,19.63
2019-05-18T21:47:02.898Z,19.40
2019-05-18T21:51:11.535Z,17.83
2019-05-18T21:55:20.145Z,18.80
2019-05-18T21:59:28.773Z,16.60
2019-05-18T22:03:37.370Z,17.23
2019-05-18T22:07:46.287Z,16.10
2019-05-18T22:11:54.937Z,15.23
2019-05-18T22:16:22.879Z,16.17
2019-05-18T22:20:32.769Z,15.73
2019-05-18T22:24:41.361Z,16.30
2019-05-18T22:28:50.033Z,16.03
2019-05-18T22:33:18.094Z,18.57
2019-05-18T22:37:26.686Z,16.40
2019-05-18T22:41:36.275Z,15.77
2019-05-18T22:45:44.905Z,17.37
2019-05-18T22:49:53.515Z,19.57
2019-05-18T22:54:02.160Z,18.47
2019-05-18T22:58:10.850Z,17.77
2019-05-18T23:02:19.495Z,17.90
2019-05-18T23:06:28.124Z,19.10
2019-05-18T23:10:36.786Z,20.50
2019-05-18T23:14:45.829Z,18.63
2019-05-18T23:18:57.219Z,19.37
2019-05-18T23:23:05.134Z,19.17
2019-05-18T23:27:13.773Z,22.20
2019-05-18T23:31:22.366Z,24.00
2019-05-18T23:35:30.982Z,21.33
2019-05-18T23:39:39.628Z,19.70
2019-05-18T23:43:48.237Z,19.93
2019-05-18T23:47:59.393Z,20.80
2019-05-18T23:52:07.144Z,19.47
2019-05-18T23:56:16.130Z,19.37
